createdAt,value
2019-02-25T00:02:26.735Z,101566.04
2019-02-25T00:04:55.274Z,101559.14
2019-02-25T00:07:23.747Z,101560.05
2019-02-25T00:09:51.995Z,101542.80
2019-02-25T00:12:20.226Z,101524.56
2019-02-25T00:14:48.702Z,101524.56
2019-02-25T00:17:16.939Z,101542.80
2019-02-25T00:19:45.419Z,101551.41
2019-02-25T00:22:13.654Z,101558.45
2019-02-25T00:24:42.135Z,101553.67
2019-02-25T00:27:10.597Z,101553.67
2019-02-25T00:29:38.845Z,101558.87
2019-02-25T00:32:07.089Z,101564.19
2019-02-25T00:34:35.335Z,101573.69
2019-02-25T00:37:03.562Z,101573.69
2019-02-25T00:39:31.806Z,101545.17
2019-02-25T00:42:00.047Z,101541.56
2019-02-25T00:44:28.592Z,101541.56
2019-02-25T00:46:56.826Z,101544.17
2019-02-25T00:49:25.059Z,101544.17
2019-02-25T00:51:53.311Z,101530.17
2019-02-25T00:54:21.545Z,101571.86
2019-02-25T00:56:49.796Z,101571.86
2019-02-25T00:59:18.030Z,101576.69
2019-02-25T01:01:46.275Z,101580.70
2019-02-25T01:04:14.739Z,101580.70
2019-02-25T01:06:42.982Z,101582.77
2019-02-25T01:09:11.286Z,101580.35
2019-02-25T01:11:39.755Z,101591.44
2019-02-25T01:14:07.987Z,101591.44
2019-02-25T01:16:36.232Z,101593.08
2019-02-25T01:19:04.466Z,101587.50
2019-02-25T01:21:32.715Z,101591.32
2019-02-25T01:24:00.948Z,101590.63
2019-02-25T01:26:29.184Z,101594.61
2019-02-25T01:28:57.668Z,101596.25
2019-02-25T01:31:25.907Z,101591.98
2019-02-25T01:33:54.135Z,101591.98
2019-02-25T01:36:22.379Z,101578.41
2019-02-25T01:38:50.617Z,101578.41
2019-02-25T01:41:18.856Z,101591.70
2019-02-25T01:43:47.087Z,101593.34
2019-02-25T01:46:15.591Z,101588.09
2019-02-25T01:48:44.058Z,101588.09
2019-02-25T01:51:12.302Z,101583.91
2019-02-25T01:53:40.529Z,101583.66
2019-02-25T01:56:09.179Z,101583.66
2019-02-25T01:58:37.632Z,101583.98
2019-02-25T02:01:05.864Z,101583.08
2019-02-25T02:03:34.099Z,101564.46
2019-02-25T02:06:02.332Z,101577.09
2019-02-25T02:08:30.804Z,101571.26
2019-02-25T02:10:59.282Z,101571.26
2019-02-25T02:13:27.506Z,101552.06
2019-02-25T02:15:55.741Z,101557.73
2019-02-25T02:18:24.207Z,101564.95
2019-02-25T02:20:52.664Z,101574.59
2019-02-25T02:23:20.904Z,101554.58
2019-02-25T02:25:49.368Z,101580.38
2019-02-25T02:28:17.620Z,101555.83
2019-02-25T02:30:45.857Z,101577.40
2019-02-25T02:33:14.111Z,101577.61
2019-02-25T02:35:42.339Z,101582.16
2019-02-25T02:38:10.582Z,101579.29
2019-02-25T02:40:38.815Z,101547.42
2019-02-25T02:43:07.047Z,101547.42
2019-02-25T02:45:41.248Z,101572.31
2019-02-25T02:48:30.762Z,101569.45
2019-02-25T02:50:58.987Z,101564.36
2019-02-25T02:53:27.274Z,101558.16
2019-02-25T02:55:55.495Z,101557.06
2019-02-25T02:58:23.972Z,101561.20
2019-02-25T03:00:52.203Z,101576.70
2019-02-25T03:03:20.447Z,101570.19
2019-02-25T03:05:48.677Z,101561.94
2019-02-25T03:08:17.152Z,101573.75
2019-02-25T03:10:45.387Z,101570.30
2019-02-25T03:13:13.616Z,101570.30
2019-02-25T03:15:41.863Z,101559.89
2019-02-25T03:18:10.102Z,101541.20
2019-02-25T03:20:38.345Z,101557.10
2019-02-25T03:23:06.826Z,101557.10
2019-02-25T03:25:35.304Z,101554.72
2019-02-25T03:28:03.547Z,101554.72
2019-02-25T03:30:32.037Z,101542.22
2019-02-25T03:33:00.278Z,101542.55
2019-02-25T03:35:28.512Z,101542.55
2019-02-25T03:37:56.744Z,101548.33
2019-02-25T03:40:24.998Z,101546.52
2019-02-25T03:42:53.473Z,101546.89
2019-02-25T03:45:21.813Z,101553.08
2019-02-25T03:47:50.041Z,101551.16
2019-02-25T03:50:18.508Z,101548.13
2019-02-25T03:52:46.744Z,101543.04
2019-02-25T03:55:19.330Z,101534.22
2019-02-25T03:57:47.691Z,101536.19
2019-02-25T04:00:25.548Z,101547.18
2019-02-25T04:02:54.073Z,101547.18
2019-02-25T04:05:22.311Z,101538.61
2019-02-25T04:07:50.572Z,101552.39
2019-02-25T04:10:19.647Z,101549.84
2019-02-25T04:12:48.106Z,101540.73
2019-02-25T04:15:19.211Z,101542.01
2019-02-25T04:17:47.444Z,101542.01
2019-02-25T04:20:16.821Z,101546.19
2019-02-25T04:22:45.294Z,101533.52
2019-02-25T04:25:13.541Z,101537.12
2019-02-25T04:27:41.765Z,101544.42
2019-02-25T04:30:15.121Z,101545.61
2019-02-25T04:32:43.391Z,101545.57
2019-02-25T04:35:12.636Z,101550.98
2019-02-25T04:37:41.111Z,101547.55
2019-02-25T04:40:12.340Z,101554.91
2019-02-25T04:42:40.586Z,101552.77
2019-02-25T04:45:11.590Z,101550.97
2019-02-25T04:47:39.823Z,101551.00
2019-02-25T04:50:09.691Z,101550.64
2019-02-25T04:52:37.941Z,101546.66
2019-02-25T04:55:07.817Z,101548.87
2019-02-25T04:57:36.056Z,101544.80
2019-02-25T05:00:09.820Z,101546.23
2019-02-25T05:02:38.061Z,101555.05
2019-02-25T05:05:07.060Z,101553.55
2019-02-25T05:07:35.305Z,101562.61
2019-02-25T05:10:04.898Z,101552.98
2019-02-25T05:12:33.151Z,101553.72
2019-02-25T05:15:01.382Z,101552.64
2019-02-25T05:17:29.615Z,101560.47
2019-02-25T05:19:57.860Z,101564.11
2019-02-25T05:22:26.092Z,101561.88
2019-02-25T05:24:54.565Z,101560.84
2019-02-25T05:27:22.793Z,101563.39
2019-02-25T05:29:51.040Z,101561.15
2019-02-25T05:32:19.280Z,101551.89
2019-02-25T05:34:47.531Z,101550.28
2019-02-25T05:37:15.988Z,101547.25
2019-02-25T05:39:44.244Z,101546.21
2019-02-25T05:42:12.477Z,101553.30
2019-02-25T05:44:40.719Z,101553.30
2019-02-25T05:47:09.187Z,101551.16
2019-02-25T05:49:37.428Z,101551.16
2019-02-25T05:52:05.663Z,101563.55
2019-02-25T05:54:34.127Z,101560.48
2019-02-25T05:57:02.378Z,101570.63
2019-02-25T05:59:30.617Z,101565.45
2019-02-25T06:01:58.858Z,101565.45
2019-02-25T06:04:27.087Z,101556.40
2019-02-25T06:06:55.319Z,101557.47
2019-02-25T06:09:23.785Z,101561.05
2019-02-25T06:11:52.242Z,101549.75
2019-02-25T06:14:20.480Z,101560.08
2019-02-25T06:16:48.707Z,101553.36
2019-02-25T06:19:16.943Z,101553.33
2019-02-25T06:21:45.173Z,101558.58
2019-02-25T06:24:13.422Z,101553.06
2019-02-25T06:26:41.658Z,101559.94
2019-02-25T06:29:09.905Z,101561.95
2019-02-25T06:31:38.140Z,101560.91
2019-02-25T06:34:06.397Z,101545.17
2019-02-25T06:36:34.630Z,101552.96
2019-02-25T06:39:03.101Z,101554.43
2019-02-25T06:41:31.567Z,101551.36
2019-02-25T06:44:00.026Z,101560.91
2019-02-25T06:46:28.265Z,101567.77
2019-02-25T06:48:56.498Z,101569.87
2019-02-25T06:51:24.735Z,101569.53
2019-02-25T06:53:52.982Z,101569.37
2019-02-25T06:56:21.450Z,101570.27
2019-02-25T06:58:49.689Z,101567.90
2019-02-25T07:01:17.932Z,101572.11
2019-02-25T07:03:47.809Z,101584.20
2019-02-25T07:06:26.667Z,101585.55
2019-02-25T07:09:02.172Z,101586.05
2019-02-25T07:11:35.001Z,101578.38
2019-02-25T07:14:10.658Z,101577.61
2019-02-25T07:16:40.528Z,101583.13
2019-02-25T07:19:19.749Z,101584.24
2019-02-25T07:21:49.628Z,101579.77
2019-02-25T07:24:22.208Z,101573.26
2019-02-25T07:27:07.108Z,101576.82
2019-02-25T07:29:49.486Z,101576.55
2019-02-25T07:32:35.383Z,101575.66
2019-02-25T07:35:25.819Z,101575.66
2019-02-25T07:37:55.495Z,101577.86
2019-02-25T07:40:43.501Z,101577.86
2019-02-25T07:43:19.383Z,101585.30
2019-02-25T07:45:49.264Z,101581.05
2019-02-25T07:48:19.151Z,101582.27
2019-02-25T07:50:49.027Z,101554.05
2019-02-25T07:53:27.946Z,101566.92
2019-02-25T07:56:06.616Z,101566.92
2019-02-25T07:58:54.221Z,101552.60
2019-02-25T08:01:29.603Z,101552.60
2019-02-25T08:04:02.104Z,101583.89
2019-02-25T08:06:31.977Z,101583.89
2019-02-25T08:09:20.014Z,101569.02
2019-02-25T08:11:52.574Z,101584.81
2019-02-25T08:14:25.400Z,101579.88
2019-02-25T08:16:58.212Z,101565.84
2019-02-25T08:19:28.337Z,101596.30
2019-02-25T08:22:16.296Z,101592.21
2019-02-25T08:25:00.717Z,101602.14
2019-02-25T08:27:30.600Z,101594.70
2019-02-25T08:30:09.511Z,101598.56
2019-02-25T08:32:45.131Z,101596.48
2019-02-25T08:35:29.663Z,101588.88
2019-02-25T08:38:00.067Z,101588.88
2019-02-25T08:40:38.129Z,101598.75
2019-02-25T08:43:11.401Z,101598.52
2019-02-25T08:45:41.267Z,101599.76
2019-02-25T08:48:11.361Z,101604.06
2019-02-25T08:50:39.603Z,101609.08
2019-02-25T08:53:07.834Z,101605.70
2019-02-25T08:55:36.302Z,101605.35
2019-02-25T08:58:04.532Z,101608.19
2019-02-25T09:00:32.772Z,101597.36
2019-02-25T09:03:01.008Z,101594.19
2019-02-25T09:05:29.244Z,101591.40
2019-02-25T09:07:57.705Z,101590.54
2019-02-25T09:10:25.946Z,101591.58
2019-02-25T09:12:54.176Z,101587.00
2019-02-25T09:15:22.641Z,101584.19
2019-02-25T09:17:50.079Z,101577.89
2019-02-25T09:20:18.558Z,101580.45
2019-02-25T09:22:47.020Z,101574.44
2019-02-25T09:25:16.322Z,101575.30
2019-02-25T09:27:44.784Z,101580.48
2019-02-25T09:30:17.930Z,101572.75
2019-02-25T09:32:46.303Z,101572.84
2019-02-25T09:35:14.526Z,101578.48
2019-02-25T09:37:43.004Z,101582.68
2019-02-25T09:40:18.471Z,101572.36
2019-02-25T09:42:46.709Z,101579.66
2019-02-25T09:45:16.199Z,101580.62
2019-02-25T09:47:44.658Z,101576.33
2019-02-25T09:50:22.880Z,101578.44
2019-02-25T09:52:51.113Z,101573.39
2019-02-25T09:55:19.369Z,101569.31
2019-02-25T09:57:47.610Z,101573.72
2019-02-25T10:00:17.829Z,101570.02
2019-02-25T10:02:46.292Z,101562.32
2019-02-25T10:05:14.532Z,101568.19
2019-02-25T10:07:42.837Z,101565.00
2019-02-25T10:10:17.068Z,101563.56
2019-02-25T10:12:45.308Z,101562.01
2019-02-25T10:15:19.165Z,101562.39
2019-02-25T10:17:47.646Z,101559.47
2019-02-25T10:20:15.888Z,101563.68
2019-02-25T10:22:44.134Z,101557.15
2019-02-25T10:25:12.440Z,101559.70
2019-02-25T10:27:40.685Z,101561.76
2019-02-25T10:30:12.098Z,101555.80
2019-02-25T10:32:40.572Z,101557.16
2019-02-25T10:35:13.628Z,101550.31
2019-02-25T10:37:43.732Z,101560.76
2019-02-25T10:40:15.215Z,101556.73
2019-02-25T10:42:43.437Z,101561.54
2019-02-25T10:45:22.490Z,101566.31
2019-02-25T10:47:51.642Z,101565.35
2019-02-25T10:50:20.848Z,101571.56
2019-02-25T10:52:49.664Z,101574.72
2019-02-25T10:55:35.537Z,101575.73
2019-02-25T10:58:04.250Z,101567.62
2019-02-25T11:00:32.479Z,101565.83
2019-02-25T11:03:00.727Z,101567.54
2019-02-25T11:05:30.570Z,101562.77
2019-02-25T11:07:59.899Z,101562.00
2019-02-25T11:10:32.592Z,101567.38
2019-02-25T11:13:02.108Z,101563.20
2019-02-25T11:15:32.601Z,101562.42
2019-02-25T11:18:00.850Z,101564.30
2019-02-25T11:20:29.709Z,101566.68
2019-02-25T11:22:59.060Z,101557.64
2019-02-25T11:25:28.471Z,101558.23
2019-02-25T11:27:57.518Z,101560.14
2019-02-25T11:30:25.742Z,101562.83
2019-02-25T11:32:56.183Z,101562.50
2019-02-25T11:35:24.175Z,101556.14
2019-02-25T11:37:54.726Z,101548.98
2019-02-25T11:40:22.691Z,101545.30
2019-02-25T11:42:51.172Z,101548.98
2019-02-25T11:45:20.438Z,101539.55
2019-02-25T11:47:48.682Z,101538.22
2019-02-25T11:50:18.456Z,101532.35
2019-02-25T11:52:46.990Z,101527.98
2019-02-25T11:55:16.221Z,101521.31
2019-02-25T11:57:44.536Z,101520.88
2019-02-25T12:00:15.949Z,101506.92
2019-02-25T12:02:44.187Z,101529.27
2019-02-25T12:05:13.020Z,101533.45
2019-02-25T12:07:41.270Z,101529.97
2019-02-25T12:10:13.925Z,101530.76
2019-02-25T12:12:42.159Z,101524.39
2019-02-25T12:15:13.407Z,101525.19
2019-02-25T12:17:41.874Z,101521.50
2019-02-25T12:20:11.857Z,101516.53
2019-02-25T12:22:40.120Z,101509.16
2019-02-25T12:25:14.054Z,101509.92
2019-02-25T12:27:42.530Z,101512.61
2019-02-25T12:30:22.628Z,101501.41
2019-02-25T12:32:50.870Z,101510.66
2019-02-25T12:35:19.337Z,101503.16
2019-02-25T12:37:47.572Z,101499.56
2019-02-25T12:40:16.756Z,101494.09
2019-02-25T12:42:45.022Z,101498.81
2019-02-25T12:45:14.941Z,101493.73
2019-02-25T12:47:43.460Z,101493.64
2019-02-25T12:50:13.802Z,101490.84
2019-02-25T12:52:43.556Z,101487.65
2019-02-25T12:55:13.031Z,101489.23
2019-02-25T12:57:41.507Z,101488.77
2019-02-25T13:00:13.239Z,101481.48
2019-02-25T13:02:41.485Z,101483.42
2019-02-25T13:05:12.592Z,101477.84
2019-02-25T13:07:41.030Z,101480.02
2019-02-25T13:10:11.412Z,101478.41
2019-02-25T13:12:39.654Z,101467.09
2019-02-25T13:15:14.134Z,101461.61
2019-02-25T13:17:42.613Z,101458.80
2019-02-25T13:20:12.689Z,101451.22
2019-02-25T13:22:40.931Z,101448.62
2019-02-25T13:25:13.204Z,101445.33
2019-02-25T13:27:41.895Z,101441.50
2019-02-25T13:30:16.035Z,101435.37
2019-02-25T13:32:44.282Z,101427.34
2019-02-25T13:35:13.835Z,101429.31
2019-02-25T13:37:42.146Z,101424.00
2019-02-25T13:40:12.588Z,101410.57
2019-02-25T13:42:40.934Z,101401.77
2019-02-25T13:45:18.523Z,101392.17
2019-02-25T13:47:46.770Z,101390.20
2019-02-25T13:50:16.381Z,101382.92
2019-02-25T13:52:48.584Z,101375.55
2019-02-25T13:55:18.757Z,101379.25
2019-02-25T13:57:46.996Z,101376.20
2019-02-25T14:00:18.409Z,101366.55
2019-02-25T14:02:46.940Z,101354.34
2019-02-25T14:05:15.398Z,101359.42
2019-02-25T14:07:43.954Z,101349.05
2019-02-25T14:10:15.922Z,101350.03
2019-02-25T14:12:44.160Z,101350.35
2019-02-25T14:15:24.077Z,101352.22
2019-02-25T14:17:52.626Z,101351.33
2019-02-25T14:20:22.031Z,101347.44
2019-02-25T14:22:50.489Z,101342.59
2019-02-25T14:25:21.909Z,101340.00
2019-02-25T14:27:50.374Z,101336.20
2019-02-25T14:30:21.844Z,101333.92
2019-02-25T14:32:52.917Z,101326.69
2019-02-25T14:35:22.572Z,101319.28
2019-02-25T14:37:50.843Z,101314.78
2019-02-25T14:40:21.704Z,101309.57
2019-02-25T14:42:51.987Z,101312.51
2019-02-25T14:45:21.966Z,101310.24
2019-02-25T14:47:55.467Z,101312.75
2019-02-25T14:50:23.587Z,101307.98
2019-02-25T14:52:52.214Z,101297.00
2019-02-25T14:55:20.725Z,101303.79
2019-02-25T14:57:48.965Z,101307.35
2019-02-25T15:00:26.803Z,101307.20
2019-02-25T15:02:55.357Z,101312.77
2019-02-25T15:05:27.118Z,101311.83
2019-02-25T15:07:55.871Z,101308.42
2019-02-25T15:10:29.071Z,101310.67
2019-02-25T15:12:58.503Z,101311.13
2019-02-25T15:15:24.367Z,101314.63
2019-02-25T15:17:52.841Z,101315.89
2019-02-25T15:20:23.373Z,101315.52
2019-02-25T15:22:52.518Z,101309.52
2019-02-25T15:25:21.139Z,101309.44
2019-02-25T15:27:49.373Z,101303.56
2019-02-25T15:30:28.214Z,101305.17
2019-02-25T15:32:58.897Z,101297.97
2019-02-25T15:35:31.454Z,101299.02
2019-02-25T15:37:57.913Z,101304.55
2019-02-25T15:40:27.395Z,101297.50
2019-02-25T15:43:10.350Z,101300.58
2019-02-25T15:45:40.682Z,101299.47
2019-02-25T15:48:13.079Z,101302.61
2019-02-25T15:50:44.126Z,101296.80
2019-02-25T15:53:12.411Z,101287.51
2019-02-25T15:55:41.396Z,101293.45
2019-02-25T15:58:09.969Z,101294.84
2019-02-25T16:00:38.511Z,101293.25
2019-02-25T16:03:09.128Z,101286.91
2019-02-25T16:05:38.671Z,101284.30
2019-02-25T16:08:07.036Z,101292.06
2019-02-25T16:10:35.270Z,101288.64
2019-02-25T16:13:05.999Z,101287.73
2019-02-25T16:15:33.610Z,101285.30
2019-02-25T16:18:02.536Z,101293.92
2019-02-25T16:20:32.597Z,101287.49
2019-02-25T16:23:02.829Z,101274.94
2019-02-25T16:25:32.203Z,101289.73
2019-02-25T16:28:00.916Z,101291.60
2019-02-25T16:30:30.719Z,101282.78
2019-02-25T16:33:04.682Z,101285.74
2019-02-25T16:35:32.258Z,101289.99
2019-02-25T16:38:02.433Z,101284.77
2019-02-25T16:40:32.923Z,101287.23
2019-02-25T16:43:02.776Z,101298.08
2019-02-25T16:45:35.037Z,101300.31
2019-02-25T16:48:01.350Z,101300.83
2019-02-25T16:50:30.384Z,101307.98
2019-02-25T16:53:03.567Z,101303.06
2019-02-25T16:55:28.850Z,101301.18
2019-02-25T16:57:58.942Z,101297.63
2019-02-25T17:00:29.980Z,101295.45
2019-02-25T17:03:01.388Z,101301.42
2019-02-25T17:05:28.552Z,101299.20
2019-02-25T17:07:57.290Z,101302.58
2019-02-25T17:10:27.107Z,101307.58
2019-02-25T17:12:56.225Z,101309.91
2019-02-25T17:15:26.928Z,101305.57
2019-02-25T17:17:58.327Z,101310.28
2019-02-25T17:20:27.777Z,101315.48
2019-02-25T17:22:55.330Z,101320.66
2019-02-25T17:25:26.851Z,101317.48
2019-02-25T17:27:53.538Z,101322.52
2019-02-25T17:30:25.767Z,101324.50
2019-02-25T17:32:54.298Z,101327.05
2019-02-25T17:35:25.947Z,101327.00
2019-02-25T17:37:55.537Z,101324.87
2019-02-25T17:40:23.583Z,101335.63
2019-02-25T17:42:53.920Z,101335.77
2019-02-25T17:45:29.482Z,101340.42
2019-02-25T17:47:58.430Z,101339.73
2019-02-25T17:50:27.165Z,101340.84
2019-02-25T17:52:55.398Z,101336.77
2019-02-25T17:55:29.399Z,101348.30
2019-02-25T17:58:00.714Z,101344.70
2019-02-25T18:00:31.955Z,101340.72
2019-02-25T18:03:03.182Z,101348.44
2019-02-25T18:05:33.510Z,101349.73
2019-02-25T18:08:02.993Z,101343.16
2019-02-25T18:10:31.578Z,101338.70
2019-02-25T18:13:01.275Z,101336.39
2019-02-25T18:15:32.804Z,101339.16
2019-02-25T18:18:01.142Z,101348.32
2019-02-25T18:20:29.551Z,101342.91
2019-02-25T18:22:58.252Z,101348.34
2019-02-25T18:25:26.492Z,101342.25
2019-02-25T18:27:54.732Z,101345.21
2019-02-25T18:30:32.764Z,101352.28
2019-02-25T18:33:04.631Z,101353.44
2019-02-25T18:35:31.566Z,101349.41
2019-02-25T18:38:00.885Z,101346.81
2019-02-25T18:40:29.958Z,101352.30
2019-02-25T18:43:00.243Z,101357.93
2019-02-25T18:45:28.331Z,101347.54
2019-02-25T18:47:56.580Z,101353.05
2019-02-25T18:50:26.968Z,101352.59
2019-02-25T18:52:57.198Z,101353.81
2019-02-25T18:55:29.150Z,101359.44
2019-02-25T18:57:57.035Z,101352.31
2019-02-25T19:00:34.958Z,101347.41
2019-02-25T19:03:04.815Z,101354.61
2019-02-25T19:05:34.365Z,101349.23
2019-02-25T19:08:05.108Z,101347.91
2019-02-25T19:10:33.600Z,101349.36
2019-02-25T19:13:02.125Z,101355.05
2019-02-25T19:15:30.655Z,101347.41
2019-02-25T19:17:58.891Z,101347.34
2019-02-25T19:20:27.487Z,101344.61
2019-02-25T19:22:58.435Z,101350.17
2019-02-25T19:25:25.944Z,101352.12
2019-02-25T19:27:56.443Z,101355.14
2019-02-25T19:30:25.403Z,101343.73
2019-02-25T19:32:55.036Z,101350.97
2019-02-25T19:35:25.763Z,101348.47
2019-02-25T19:37:53.614Z,101347.72
2019-02-25T19:40:24.550Z,101343.90
2019-02-25T19:42:54.258Z,101346.86
2019-02-25T19:45:22.904Z,101347.12
2019-02-25T19:47:51.237Z,101349.25
2019-02-25T19:50:21.164Z,101350.56
2019-02-25T19:52:49.621Z,101349.04
2019-02-25T19:55:20.507Z,101346.92
2019-02-25T19:57:48.226Z,101351.19
2019-02-25T20:00:25.765Z,101350.05
2019-02-25T20:02:54.087Z,101354.34
2019-02-25T20:05:24.146Z,101349.34
2019-02-25T20:07:54.605Z,101353.34
2019-02-25T20:10:22.354Z,101357.34
2019-02-25T20:12:53.168Z,101349.30
2019-02-25T20:15:25.377Z,101341.74
2019-02-25T20:17:55.300Z,101346.39
2019-02-25T20:20:25.200Z,101349.86
2019-02-25T20:22:53.447Z,101350.55
2019-02-25T20:25:24.520Z,101342.48
2019-02-25T20:27:52.853Z,101348.89
2019-02-25T20:30:23.695Z,101347.84
2019-02-25T20:32:52.471Z,101340.41
2019-02-25T20:35:22.225Z,101341.56
2019-02-25T20:37:52.951Z,101342.51
2019-02-25T20:40:21.833Z,101339.30
2019-02-25T20:42:51.237Z,101344.45
2019-02-25T20:45:30.457Z,101343.30
2019-02-25T20:47:59.703Z,101341.68
2019-02-25T20:50:28.586Z,101343.22
2019-02-25T20:52:59.152Z,101335.97
2019-02-25T20:55:27.569Z,101328.30
2019-02-25T20:57:56.720Z,101332.05
2019-02-25T21:00:25.945Z,101331.55
2019-02-25T21:02:54.188Z,101322.99
2019-02-25T21:05:24.675Z,101322.35
2019-02-25T21:07:53.439Z,101330.42
2019-02-25T21:10:24.827Z,101327.61
2019-02-25T21:12:54.586Z,101317.87
2019-02-25T21:15:22.884Z,101320.59
2019-02-25T21:17:52.020Z,101316.11
2019-02-25T21:20:21.505Z,101313.29
2019-02-25T21:22:52.938Z,101307.27
2019-02-25T21:25:24.414Z,101304.20
2019-02-25T21:27:51.039Z,101306.24
2019-02-25T21:30:22.681Z,101299.71
2019-02-25T21:32:51.966Z,101303.55
2019-02-25T21:35:23.457Z,101305.22
2019-02-25T21:37:52.847Z,101299.07
2019-02-25T21:40:25.072Z,101288.98
2019-02-25T21:42:54.423Z,101293.59
2019-02-25T21:45:25.172Z,101296.41
2019-02-25T21:47:56.033Z,101296.41
2019-02-25T21:50:26.269Z,101303.07
2019-02-25T21:52:53.395Z,101298.47
2019-02-25T21:55:23.748Z,101298.33
2019-02-25T21:57:54.349Z,101292.57
2019-02-25T22:00:23.197Z,101296.53
2019-02-25T22:02:52.676Z,101292.34
2019-02-25T22:05:23.581Z,101292.98
2019-02-25T22:07:54.336Z,101289.26
2019-02-25T22:10:21.214Z,101290.15
2019-02-25T22:12:49.449Z,101288.00
2019-02-25T22:15:19.694Z,101286.96
2019-02-25T22:17:50.632Z,101290.54
2019-02-25T22:20:21.345Z,101289.26
2019-02-25T22:22:49.488Z,101291.84
2019-02-25T22:25:22.151Z,101292.22
2019-02-25T22:27:50.379Z,101296.80
2019-02-25T22:30:18.922Z,101290.67
2019-02-25T22:32:47.157Z,101299.23
2019-02-25T22:35:15.621Z,101299.63
2019-02-25T22:37:46.796Z,101295.89
2019-02-25T22:40:17.544Z,101293.58
2019-02-25T22:42:47.929Z,101299.08
2019-02-25T22:45:22.650Z,101306.38
2019-02-25T22:47:50.957Z,101306.23
2019-02-25T22:50:19.427Z,101300.12
2019-02-25T22:52:52.236Z,101297.16
2019-02-25T22:55:20.192Z,101301.36
2019-02-25T22:57:50.936Z,101297.12
2019-02-25T23:00:42.332Z,101299.69
2019-02-25T23:03:11.388Z,101299.80
2019-02-25T23:05:42.970Z,101314.10
2019-02-25T23:08:13.113Z,101313.59
2019-02-25T23:10:42.544Z,101318.31
2019-02-25T23:13:10.973Z,101317.55
2019-02-25T23:15:39.208Z,101312.06
2019-02-25T23:18:10.039Z,101314.34
2019-02-25T23:20:37.403Z,101311.80
2019-02-25T23:23:06.664Z,101312.17
2019-02-25T23:25:34.947Z,101319.33
2019-02-25T23:28:03.184Z,101312.18
2019-02-25T23:30:31.410Z,101319.44
2019-02-25T23:32:59.647Z,101319.92
2019-02-25T23:35:27.881Z,101315.33
2019-02-25T23:37:56.770Z,101314.30
2019-02-25T23:40:26.066Z,101314.53
2019-02-25T23:42:54.303Z,101306.35
2019-02-25T23:45:23.258Z,101304.94
2019-02-25T23:47:55.250Z,101310.95
2019-02-25T23:50:21.622Z,101300.34
2019-02-25T23:52:49.866Z,101304.56
2019-02-25T23:55:19.651Z,101299.83
2019-02-25T23:57:48.276Z,101304.17
